sensor_id;sensor_type;location;lat;lon;timestamp;P1;durP1;ratioP1;P2;durP2;ratioP2
69358;SDS011;56520;49.066;8.660;2023-11-19T00:00:15;3.50;;;0.90;;
69358;SDS011;56520;49.066;8.660;2023-11-19T00:02:41;3.00;;;1.00;;
69358;SDS011;56520;49.066;8.660;2023-11-19T00:05:07;3.53;;;1.27;;
69358;SDS011;56520;49.066;8.660;2023-11-19T00:07:39;2.53;;;0.90;;
69358;SDS011;56520;49.066;8.660;2023-11-19T00:10:14;3.40;;;1.08;;
69358;SDS011;56520;49.066;8.660;2023-11-19T00:12:44;2.53;;;0.90;;
69358;SDS011;56520;49.066;8.660;2023-11-19T00:15:11;2.35;;;0.75;;
69358;SDS011;56520;49.066;8.660;2023-11-19T00:17:38;2.13;;;0.98;;
69358;SDS011;56520;49.066;8.660;2023-11-19T00:20:09;2.78;;;0.95;;
69358;SDS011;56520;49.066;8.660;2023-11-19T00:22:35;2.25;;;0.73;;
69358;SDS011;56520;49.066;8.660;2023-11-19T00:25:01;2.67;;;0.80;;
69358;SDS011;56520;49.066;8.660;2023-11-19T00:27:27;3.28;;;1.10;;
69358;SDS011;56520;49.066;8.660;2023-11-19T00:29:52;4.00;;;1.10;;
69358;SDS011;56520;49.066;8.660;2023-11-19T00:32:18;3.50;;;1.30;;
69358;SDS011;56520;49.066;8.660;2023-11-19T00:34:44;3.45;;;1.30;;
69358;SDS011;56520;49.066;8.660;2023-11-19T00:37:09;3.63;;;1.50;;
69358;SDS011;56520;49.066;8.660;2023-11-19T00:39:35;4.05;;;1.30;;
69358;SDS011;56520;49.066;8.660;2023-11-19T00:42:00;4.88;;;1.50;;
69358;SDS011;56520;49.066;8.660;2023-11-19T00:44:26;3.45;;;1.15;;
69358;SDS011;56520;49.066;8.660;2023-11-19T00:46:51;9.75;;;1.70;;
69358;SDS011;56520;49.066;8.660;2023-11-19T00:49:17;4.18;;;1.40;;
69358;SDS011;56520;49.066;8.660;2023-11-19T00:51:42;3.17;;;1.10;;
69358;SDS011;56520;49.066;8.660;2023-11-19T00:54:07;3.65;;;1.20;;
69358;SDS011;56520;49.066;8.660;2023-11-19T00:56:33;3.53;;;1.38;;
69358;SDS011;56520;49.066;8.660;2023-11-19T00:58:58;2.53;;;1.00;;
69358;SDS011;56520;49.066;8.660;2023-11-19T01:01:25;1.45;;;0.50;;
69358;SDS011;56520;49.066;8.660;2023-11-19T01:03:51;0.57;;;0.25;;
69358;SDS011;56520;49.066;8.660;2023-11-19T01:06:26;0.20;;;0.20;;
69358;SDS011;56520;49.066;8.660;2023-11-19T01:08:55;3.00;;;0.40;;
69358;SDS011;56520;49.066;8.660;2023-11-19T01:11:22;0.75;;;0.28;;
69358;SDS011;56520;49.066;8.660;2023-11-19T01:13:51;0.03;;;0.03;;
69358;SDS011;56520;49.066;8.660;2023-11-19T01:16:17;0.25;;;0.17;;
69358;SDS011;56520;49.066;8.660;2023-11-19T01:18:43;0.20;;;0.10;;
69358;SDS011;56520;49.066;8.660;2023-11-19T01:21:10;0.35;;;0.20;;
69358;SDS011;56520;49.066;8.660;2023-11-19T01:23:35;0.52;;;0.20;;
69358;SDS011;56520;49.066;8.660;2023-11-19T01:26:02;0.05;;;0.00;;
69358;SDS011;56520;49.066;8.660;2023-11-19T01:28:27;0.35;;;0.20;;
69358;SDS011;56520;49.066;8.660;2023-11-19T01:30:53;0.35;;;0.20;;
69358;SDS011;56520;49.066;8.660;2023-11-19T01:33:19;0.70;;;0.30;;
69358;SDS011;56520;49.066;8.660;2023-11-19T01:35:44;0.75;;;0.30;;
69358;SDS011;56520;49.066;8.660;2023-11-19T01:38:10;0.90;;;0.13;;
69358;SDS011;56520;49.066;8.660;2023-11-19T01:40:35;0.88;;;0.30;;
69358;SDS011;56520;49.066;8.660;2023-11-19T01:43:01;0.17;;;0.10;;
69358;SDS011;56520;49.066;8.660;2023-11-19T01:45:28;0.75;;;0.20;;
69358;SDS011;56520;49.066;8.660;2023-11-19T01:47:55;0.10;;;0.10;;
69358;SDS011;56520;49.066;8.660;2023-11-19T01:50:25;0.35;;;0.20;;
69358;SDS011;56520;49.066;8.660;2023-11-19T01:52:52;0.10;;;0.10;;
69358;SDS011;56520;49.066;8.660;2023-11-19T01:55:19;1.23;;;0.30;;
69358;SDS011;56520;49.066;8.660;2023-11-19T01:57:45;0.30;;;0.20;;
69358;SDS011;56520;49.066;8.660;2023-11-19T02:00:11;0.43;;;0.25;;
69358;SDS011;56520;49.066;8.660;2023-11-19T02:02:38;1.20;;;0.30;;
69358;SDS011;56520;49.066;8.660;2023-11-19T02:05:05;0.40;;;0.20;;
69358;SDS011;56520;49.066;8.660;2023-11-19T02:07:31;0.85;;;0.30;;
69358;SDS011;56520;49.066;8.660;2023-11-19T02:09:57;2.00;;;0.28;;
69358;SDS011;56520;49.066;8.660;2023-11-19T02:12:25;0.50;;;0.17;;
69358;SDS011;56520;49.066;8.660;2023-11-19T02:14:53;0.13;;;0.10;;
69358;SDS011;56520;49.066;8.660;2023-11-19T02:17:31;0.68;;;0.20;;
69358;SDS011;56520;49.066;8.660;2023-11-19T02:19:57;0.03;;;0.03;;
69358;SDS011;56520;49.066;8.660;2023-11-19T02:22:23;0.77;;;0.30;;
69358;SDS011;56520;49.066;8.660;2023-11-19T02:24:49;0.47;;;0.25;;
69358;SDS011;56520;49.066;8.660;2023-11-19T02:27:22;0.57;;;0.32;;
69358;SDS011;56520;49.066;8.660;2023-11-19T02:30:12;0.40;;;0.20;;
69358;SDS011;56520;49.066;8.660;2023-11-19T02:32:43;5.32;;;0.40;;
69358;SDS011;56520;49.066;8.660;2023-11-19T02:35:08;0.45;;;0.30;;
69358;SDS011;56520;49.066;8.660;2023-11-19T02:37:34;1.75;;;0.30;;
69358;SDS011;56520;49.066;8.660;2023-11-19T02:39:59;0.30;;;0.20;;
69358;SDS011;56520;49.066;8.660;2023-11-19T02:42:29;0.10;;;0.10;;
69358;SDS011;56520;49.066;8.660;2023-11-19T02:44:54;0.32;;;0.20;;
69358;SDS011;56520;49.066;8.660;2023-11-19T02:47:20;1.00;;;0.30;;
69358;SDS011;56520;49.066;8.660;2023-11-19T02:49:46;1.65;;;0.40;;
69358;SDS011;56520;49.066;8.660;2023-11-19T02:52:12;0.88;;;0.32;;
69358;SDS011;56520;49.066;8.660;2023-11-19T02:54:39;1.00;;;0.40;;
69358;SDS011;56520;49.066;8.660;2023-11-19T02:57:06;0.10;;;0.10;;
69358;SDS011;56520;49.066;8.660;2023-11-19T02:59:33;0.15;;;0.15;;
69358;SDS011;56520;49.066;8.660;2023-11-19T03:02:04;0.35;;;0.20;;
69358;SDS011;56520;49.066;8.660;2023-11-19T03:04:32;0.15;;;0.15;;
69358;SDS011;56520;49.066;8.660;2023-11-19T03:06:58;0.40;;;0.22;;
69358;SDS011;56520;49.066;8.660;2023-11-19T03:09:24;0.80;;;0.30;;
69358;SDS011;56520;49.066;8.660;2023-11-19T03:11:49;0.77;;;0.30;;
69358;SDS011;56520;49.066;8.660;2023-11-19T03:14:15;0.45;;;0.17;;
69358;SDS011;56520;49.066;8.660;2023-11-19T03:16:44;0.40;;;0.30;;
69358;SDS011;56520;49.066;8.660;2023-11-19T03:19:11;0.45;;;0.20;;
69358;SDS011;56520;49.066;8.660;2023-11-19T03:21:36;0.30;;;0.20;;
69358;SDS011;56520;49.066;8.660;2023-11-19T03:24:02;0.25;;;0.10;;
69358;SDS011;56520;49.066;8.660;2023-11-19T03:26:28;0.52;;;0.20;;
69358;SDS011;56520;49.066;8.660;2023-11-19T03:28:54;0.77;;;0.38;;
69358;SDS011;56520;49.066;8.660;2023-11-19T03:31:20;0.40;;;0.20;;
69358;SDS011;56520;49.066;8.660;2023-11-19T03:33:46;0.68;;;0.20;;
69358;SDS011;56520;49.066;8.660;2023-11-19T03:36:11;0.90;;;0.40;;
69358;SDS011;56520;49.066;8.660;2023-11-19T03:38:37;0.20;;;0.13;;
69358;SDS011;56520;49.066;8.660;2023-11-19T03:41:12;0.43;;;0.22;;
69358;SDS011;56520;49.066;8.660;2023-11-19T03:43:39;0.35;;;0.20;;
69358;SDS011;56520;49.066;8.660;2023-11-19T03:46:14;0.90;;;0.32;;
69358;SDS011;56520;49.066;8.660;2023-11-19T03:48:47;0.50;;;0.20;;
69358;SDS011;56520;49.066;8.660;2023-11-19T03:51:13;0.65;;;0.30;;
69358;SDS011;56520;49.066;8.660;2023-11-19T03:53:44;0.52;;;0.30;;
69358;SDS011;56520;49.066;8.660;2023-11-19T03:56:10;0.57;;;0.25;;
69358;SDS011;56520;49.066;8.660;2023-11-19T03:58:36;0.68;;;0.38;;
69358;SDS011;56520;49.066;8.660;2023-11-19T04:01:03;0.57;;;0.28;;
69358;SDS011;56520;49.066;8.660;2023-11-19T04:03:29;0.82;;;0.25;;
69358;SDS011;56520;49.066;8.660;2023-11-19T04:05:54;0.25;;;0.13;;
69358;SDS011;56520;49.066;8.660;2023-11-19T04:08:19;2.88;;;0.40;;
69358;SDS011;56520;49.066;8.660;2023-11-19T04:10:45;0.32;;;0.20;;
69358;SDS011;56520;49.066;8.660;2023-11-19T04:13:10;0.77;;;0.40;;
69358;SDS011;56520;49.066;8.660;2023-11-19T04:15:36;0.22;;;0.13;;
69358;SDS011;56520;49.066;8.660;2023-11-19T04:18:01;0.88;;;0.35;;
69358;SDS011;56520;49.066;8.660;2023-11-19T04:20:26;0.10;;;0.10;;
69358;SDS011;56520;49.066;8.660;2023-11-19T04:22:52;1.05;;;0.40;;
69358;SDS011;56520;49.066;8.660;2023-11-19T04:25:18;0.73;;;0.40;;
69358;SDS011;56520;49.066;8.660;2023-11-19T04:27:44;0.80;;;0.40;;
69358;SDS011;56520;49.066;8.660;2023-11-19T04:30:10;0.43;;;0.30;;
69358;SDS011;56520;49.066;8.660;2023-11-19T04:32:36;0.75;;;0.30;;
69358;SDS011;56520;49.066;8.660;2023-11-19T04:35:02;0.40;;;0.17;;
69358;SDS011;56520;49.066;8.660;2023-11-19T04:37:28;0.65;;;0.30;;
69358;SDS011;56520;49.066;8.660;2023-11-19T04:39:53;0.40;;;0.20;;
69358;SDS011;56520;49.066;8.660;2023-11-19T04:42:19;0.43;;;0.20;;
69358;SDS011;56520;49.066;8.660;2023-11-19T04:44:47;1.13;;;0.40;;
69358;SDS011;56520;49.066;8.660;2023-11-19T04:47:12;0.40;;;0.20;;
69358;SDS011;56520;49.066;8.660;2023-11-19T04:49:42;0.35;;;0.20;;
69358;SDS011;56520;49.066;8.660;2023-11-19T04:52:10;0.10;;;0.10;;
69358;SDS011;56520;49.066;8.660;2023-11-19T04:54:40;0.20;;;0.17;;
69358;SDS011;56520;49.066;8.660;2023-11-19T04:57:09;0.70;;;0.10;;
69358;SDS011;56520;49.066;8.660;2023-11-19T04:59:36;1.77;;;0.30;;
69358;SDS011;56520;49.066;8.660;2023-11-19T05:02:01;0.68;;;0.20;;
69358;SDS011;56520;49.066;8.660;2023-11-19T05:04:27;0.60;;;0.30;;
69358;SDS011;56520;49.066;8.660;2023-11-19T05:06:52;0.50;;;0.30;;
69358;SDS011;56520;49.066;8.660;2023-11-19T05:09:18;0.43;;;0.20;;
69358;SDS011;56520;49.066;8.660;2023-11-19T05:11:43;0.50;;;0.17;;
69358;SDS011;56520;49.066;8.660;2023-11-19T05:14:09;0.52;;;0.20;;
69358;SDS011;56520;49.066;8.660;2023-11-19T05:16:34;0.20;;;0.20;;
69358;SDS011;56520;49.066;8.660;2023-11-19T05:19:00;0.20;;;0.10;;
69358;SDS011;56520;49.066;8.660;2023-11-19T05:21:25;0.70;;;0.25;;
69358;SDS011;56520;49.066;8.660;2023-11-19T05:23:51;0.52;;;0.17;;
69358;SDS011;56520;49.066;8.660;2023-11-19T05:26:17;0.60;;;0.22;;
69358;SDS011;56520;49.066;8.660;2023-11-19T05:28:43;0.32;;;0.20;;
69358;SDS011;56520;49.066;8.660;2023-11-19T05:31:09;1.50;;;0.25;;
69358;SDS011;56520;49.066;8.660;2023-11-19T05:33:34;1.27;;;0.20;;
69358;SDS011;56520;49.066;8.660;2023-11-19T05:36:00;0.63;;;0.20;;
69358;SDS011;56520;49.066;8.660;2023-11-19T05:38:28;0.65;;;0.30;;
69358;SDS011;56520;49.066;8.660;2023-11-19T05:40:54;0.15;;;0.15;;
69358;SDS011;56520;49.066;8.660;2023-11-19T05:43:19;0.30;;;0.17;;
69358;SDS011;56520;49.066;8.660;2023-11-19T05:45:44;0.52;;;0.20;;
69358;SDS011;56520;49.066;8.660;2023-11-19T05:48:10;0.32;;;0.10;;
69358;SDS011;56520;49.066;8.660;2023-11-19T05:50:35;0.43;;;0.28;;
69358;SDS011;56520;49.066;8.660;2023-11-19T05:53:01;0.38;;;0.10;;
69358;SDS011;56520;49.066;8.660;2023-11-19T05:55:26;0.45;;;0.20;;
69358;SDS011;56520;49.066;8.660;2023-11-19T05:57:53;0.10;;;0.10;;
69358;SDS011;56520;49.066;8.660;2023-11-19T06:00:18;1.48;;;0.30;;
69358;SDS011;56520;49.066;8.660;2023-11-19T06:02:44;0.43;;;0.17;;
69358;SDS011;56520;49.066;8.660;2023-11-19T06:05:09;0.20;;;0.20;;
69358;SDS011;56520;49.066;8.660;2023-11-19T06:07:35;0.20;;;0.10;;
69358;SDS011;56520;49.066;8.660;2023-11-19T06:10:01;0.20;;;0.20;;
69358;SDS011;56520;49.066;8.660;2023-11-19T06:12:30;1.02;;;0.32;;
69358;SDS011;56520;49.066;8.660;2023-11-19T06:14:56;1.20;;;0.45;;
69358;SDS011;56520;49.066;8.660;2023-11-19T06:17:22;0.90;;;0.30;;
69358;SDS011;56520;49.066;8.660;2023-11-19T06:19:47;1.40;;;0.47;;
69358;SDS011;56520;49.066;8.660;2023-11-19T06:22:13;0.80;;;0.20;;
69358;SDS011;56520;49.066;8.660;2023-11-19T06:24:38;1.90;;;0.80;;
69358;SDS011;56520;49.066;8.660;2023-11-19T06:27:03;3.95;;;1.17;;
69358;SDS011;56520;49.066;8.660;2023-11-19T06:29:29;4.68;;;0.60;;
69358;SDS011;56520;49.066;8.660;2023-11-19T06:31:54;0.55;;;0.20;;
69358;SDS011;56520;49.066;8.660;2023-11-19T06:34:20;4.60;;;1.00;;
69358;SDS011;56520;49.066;8.660;2023-11-19T06:36:45;1.27;;;0.32;;
69358;SDS011;56520;49.066;8.660;2023-11-19T06:39:11;0.82;;;0.30;;
69358;SDS011;56520;49.066;8.660;2023-11-19T06:41:37;0.60;;;0.30;;
69358;SDS011;56520;49.066;8.660;2023-11-19T06:44:05;0.77;;;0.32;;
69358;SDS011;56520;49.066;8.660;2023-11-19T06:46:31;0.40;;;0.30;;
69358;SDS011;56520;49.066;8.660;2023-11-19T06:48:56;0.52;;;0.30;;
69358;SDS011;56520;49.066;8.660;2023-11-19T06:51:22;0.40;;;0.20;;
69358;SDS011;56520;49.066;8.660;2023-11-19T06:53:49;0.25;;;0.20;;
69358;SDS011;56520;49.066;8.660;2023-11-19T06:56:21;0.20;;;0.20;;
69358;SDS011;56520;49.066;8.660;2023-11-19T06:58:47;0.22;;;0.10;;
69358;SDS011;56520;49.066;8.660;2023-11-19T07:01:13;0.10;;;0.10;;
69358;SDS011;56520;49.066;8.660;2023-11-19T07:03:44;0.40;;;0.30;;
69358;SDS011;56520;49.066;8.660;2023-11-19T07:06:10;0.47;;;0.20;;
69358;SDS011;56520;49.066;8.660;2023-11-19T07:08:35;1.52;;;0.30;;
69358;SDS011;56520;49.066;8.660;2023-11-19T07:11:01;1.17;;;0.40;;
69358;SDS011;56520;49.066;8.660;2023-11-19T07:13:27;1.05;;;0.30;;
69358;SDS011;56520;49.066;8.660;2023-11-19T07:15:53;0.90;;;0.38;;
69358;SDS011;56520;49.066;8.660;2023-11-19T07:18:20;1.88;;;0.63;;
69358;SDS011;56520;49.066;8.660;2023-11-19T07:20:47;0.77;;;0.30;;
69358;SDS011;56520;49.066;8.660;2023-11-19T07:23:13;4.72;;;1.45;;
69358;SDS011;56520;49.066;8.660;2023-11-19T07:25:41;2.83;;;0.93;;
69358;SDS011;56520;49.066;8.660;2023-11-19T07:28:08;5.80;;;1.90;;
69358;SDS011;56520;49.066;8.660;2023-11-19T07:30:35;6.63;;;1.95;;
69358;SDS011;56520;49.066;8.660;2023-11-19T07:33:00;3.80;;;1.30;;
69358;SDS011;56520;49.066;8.660;2023-11-19T07:35:28;1.30;;;0.35;;
69358;SDS011;56520;49.066;8.660;2023-11-19T07:37:55;4.32;;;1.40;;
69358;SDS011;56520;49.066;8.660;2023-11-19T07:40:21;3.38;;;1.10;;
69358;SDS011;56520;49.066;8.660;2023-11-19T07:42:46;1.00;;;0.45;;
69358;SDS011;56520;49.066;8.660;2023-11-19T07:45:12;1.17;;;0.47;;
69358;SDS011;56520;49.066;8.660;2023-11-19T07:47:38;0.75;;;0.38;;
69358;SDS011;56520;49.066;8.660;2023-11-19T07:50:03;1.73;;;0.57;;
69358;SDS011;56520;49.066;8.660;2023-11-19T07:52:29;0.73;;;0.38;;
69358;SDS011;56520;49.066;8.660;2023-11-19T07:54:55;1.80;;;0.52;;
69358;SDS011;56520;49.066;8.660;2023-11-19T07:57:20;0.95;;;0.40;;
69358;SDS011;56520;49.066;8.660;2023-11-19T07:59:46;2.78;;;0.73;;
69358;SDS011;56520;49.066;8.660;2023-11-19T08:02:12;2.17;;;0.40;;
69358;SDS011;56520;49.066;8.660;2023-11-19T08:04:37;1.10;;;0.55;;
69358;SDS011;56520;49.066;8.660;2023-11-19T08:07:04;1.17;;;0.50;;
69358;SDS011;56520;49.066;8.660;2023-11-19T08:09:30;2.72;;;0.40;;
69358;SDS011;56520;49.066;8.660;2023-11-19T08:11:55;3.78;;;0.40;;
69358;SDS011;56520;49.066;8.660;2023-11-19T08:14:21;0.55;;;0.30;;
69358;SDS011;56520;49.066;8.660;2023-11-19T08:16:46;1.95;;;0.40;;
69358;SDS011;56520;49.066;8.660;2023-11-19T08:19:12;1.83;;;0.70;;
69358;SDS011;56520;49.066;8.660;2023-11-19T08:21:37;1.00;;;0.50;;
69358;SDS011;56520;49.066;8.660;2023-11-19T08:24:03;0.70;;;0.40;;
69358;SDS011;56520;49.066;8.660;2023-11-19T08:26:29;0.95;;;0.38;;
69358;SDS011;56520;49.066;8.660;2023-11-19T08:28:54;2.67;;;0.50;;
69358;SDS011;56520;49.066;8.660;2023-11-19T08:31:19;1.38;;;0.38;;
69358;SDS011;56520;49.066;8.660;2023-11-19T08:33:45;0.77;;;0.25;;
69358;SDS011;56520;49.066;8.660;2023-11-19T08:36:16;1.25;;;0.25;;
69358;SDS011;56520;49.066;8.660;2023-11-19T08:41:07;0.50;;;0.20;;
69358;SDS011;56520;49.066;8.660;2023-11-19T08:43:33;1.50;;;0.47;;
69358;SDS011;56520;49.066;8.660;2023-11-19T08:45:58;0.35;;;0.20;;
69358;SDS011;56520;49.066;8.660;2023-11-19T08:48:23;3.60;;;0.90;;
69358;SDS011;56520;49.066;8.660;2023-11-19T08:50:49;1.65;;;0.57;;
69358;SDS011;56520;49.066;8.660;2023-11-19T08:53:15;2.42;;;0.90;;
69358;SDS011;56520;49.066;8.660;2023-11-19T08:55:40;0.85;;;0.50;;
69358;SDS011;56520;49.066;8.660;2023-11-19T08:58:05;1.45;;;0.60;;
69358;SDS011;56520;49.066;8.660;2023-11-19T09:00:31;1.95;;;0.80;;
69358;SDS011;56520;49.066;8.660;2023-11-19T09:02:57;1.13;;;0.35;;
69358;SDS011;56520;49.066;8.660;2023-11-19T09:05:23;3.55;;;0.75;;
69358;SDS011;56520;49.066;8.660;2023-11-19T09:07:48;1.75;;;0.60;;
69358;SDS011;56520;49.066;8.660;2023-11-19T09:10:14;0.75;;;0.40;;
69358;SDS011;56520;49.066;8.660;2023-11-19T09:12:40;1.40;;;0.40;;
69358;SDS011;56520;49.066;8.660;2023-11-19T09:15:06;1.27;;;0.55;;
69358;SDS011;56520;49.066;8.660;2023-11-19T09:17:32;2.05;;;0.82;;
69358;SDS011;56520;49.066;8.660;2023-11-19T09:19:57;0.70;;;0.45;;
69358;SDS011;56520;49.066;8.660;2023-11-19T09:22:23;1.08;;;0.30;;
69358;SDS011;56520;49.066;8.660;2023-11-19T09:24:48;1.52;;;0.60;;
69358;SDS011;56520;49.066;8.660;2023-11-19T09:27:14;2.65;;;0.40;;
69358;SDS011;56520;49.066;8.660;2023-11-19T09:29:39;1.33;;;0.43;;
69358;SDS011;56520;49.066;8.660;2023-11-19T09:32:05;1.08;;;0.28;;
69358;SDS011;56520;49.066;8.660;2023-11-19T09:34:31;0.93;;;0.38;;
69358;SDS011;56520;49.066;8.660;2023-11-19T09:36:56;0.75;;;0.30;;
69358;SDS011;56520;49.066;8.660;2023-11-19T09:39:22;0.63;;;0.40;;
69358;SDS011;56520;49.066;8.660;2023-11-19T09:41:47;2.30;;;0.77;;
69358;SDS011;56520;49.066;8.660;2023-11-19T09:44:14;1.40;;;0.60;;
69358;SDS011;56520;49.066;8.660;2023-11-19T09:46:43;0.93;;;0.47;;
69358;SDS011;56520;49.066;8.660;2023-11-19T09:49:09;0.90;;;0.43;;
69358;SDS011;56520;49.066;8.660;2023-11-19T09:51:35;1.83;;;0.50;;
69358;SDS011;56520;49.066;8.660;2023-11-19T09:54:01;2.25;;;0.40;;
69358;SDS011;56520;49.066;8.660;2023-11-19T09:56:28;1.10;;;0.40;;
69358;SDS011;56520;49.066;8.660;2023-11-19T09:58:54;1.88;;;0.50;;
69358;SDS011;56520;49.066;8.660;2023-11-19T10:01:20;0.90;;;0.40;;
69358;SDS011;56520;49.066;8.660;2023-11-19T10:03:46;1.08;;;0.32;;
69358;SDS011;56520;49.066;8.660;2023-11-19T10:06:13;0.73;;;0.43;;
69358;SDS011;56520;49.066;8.660;2023-11-19T10:08:41;1.33;;;0.43;;
69358;SDS011;56520;49.066;8.660;2023-11-19T10:11:08;1.40;;;0.40;;
69358;SDS011;56520;49.066;8.660;2023-11-19T10:13:36;1.08;;;0.30;;
69358;SDS011;56520;49.066;8.660;2023-11-19T10:16:14;0.75;;;0.28;;
69358;SDS011;56520;49.066;8.660;2023-11-19T10:18:46;1.67;;;0.45;;
69358;SDS011;56520;49.066;8.660;2023-11-19T10:21:13;3.33;;;0.50;;
69358;SDS011;56520;49.066;8.660;2023-11-19T10:23:49;1.23;;;0.40;;
69358;SDS011;56520;49.066;8.660;2023-11-19T10:26:18;1.45;;;0.50;;
69358;SDS011;56520;49.066;8.660;2023-11-19T10:28:45;1.10;;;0.40;;
69358;SDS011;56520;49.066;8.660;2023-11-19T10:31:14;0.30;;;0.30;;
69358;SDS011;56520;49.066;8.660;2023-11-19T10:33:41;0.85;;;0.40;;
69358;SDS011;56520;49.066;8.660;2023-11-19T10:36:09;0.95;;;0.40;;
69358;SDS011;56520;49.066;8.660;2023-11-19T10:38:36;3.53;;;0.80;;
69358;SDS011;56520;49.066;8.660;2023-11-19T10:41:02;0.90;;;0.40;;
69358;SDS011;56520;49.066;8.660;2023-11-19T10:43:29;2.28;;;0.77;;
69358;SDS011;56520;49.066;8.660;2023-11-19T10:45:54;3.15;;;0.98;;
69358;SDS011;56520;49.066;8.660;2023-11-19T10:48:35;1.70;;;0.70;;
69358;SDS011;56520;49.066;8.660;2023-11-19T10:51:00;0.82;;;0.40;;
69358;SDS011;56520;49.066;8.660;2023-11-19T10:53:30;2.20;;;0.70;;
69358;SDS011;56520;49.066;8.660;2023-11-19T10:55:58;0.50;;;0.30;;
69358;SDS011;56520;49.066;8.660;2023-11-19T10:58:25;0.68;;;0.40;;
69358;SDS011;56520;49.066;8.660;2023-11-19T11:00:54;4.45;;;1.10;;
69358;SDS011;56520;49.066;8.660;2023-11-19T11:03:29;2.47;;;0.85;;
69358;SDS011;56520;49.066;8.660;2023-11-19T11:05:56;2.00;;;0.60;;
69358;SDS011;56520;49.066;8.660;2023-11-19T11:08:23;1.52;;;0.65;;
69358;SDS011;56520;49.066;8.660;2023-11-19T11:13:22;1.58;;;0.55;;
69358;SDS011;56520;49.066;8.660;2023-11-19T11:15:54;2.97;;;0.70;;
69358;SDS011;56520;49.066;8.660;2023-11-19T11:18:22;0.52;;;0.40;;
69358;SDS011;56520;49.066;8.660;2023-11-19T11:20:49;1.20;;;0.45;;
69358;SDS011;56520;49.066;8.660;2023-11-19T11:26:06;3.08;;;0.80;;
69358;SDS011;56520;49.066;8.660;2023-11-19T11:28:41;1.63;;;0.68;;
69358;SDS011;56520;49.066;8.660;2023-11-19T11:31:49;1.38;;;0.52;;
69358;SDS011;56520;49.066;8.660;2023-11-19T11:40:02;2.67;;;0.68;;
69358;SDS011;56520;49.066;8.660;2023-11-19T11:42:35;2.60;;;0.70;;
69358;SDS011;56520;49.066;8.660;2023-11-19T11:55:27;1.38;;;0.57;;
69358;SDS011;56520;49.066;8.660;2023-11-19T11:57:53;3.03;;;0.50;;
69358;SDS011;56520;49.066;8.660;2023-11-19T12:00:22;3.05;;;0.60;;
69358;SDS011;56520;49.066;8.660;2023-11-19T12:03:05;3.17;;;0.80;;
69358;SDS011;56520;49.066;8.660;2023-11-19T12:05:32;2.58;;;0.50;;
69358;SDS011;56520;49.066;8.660;2023-11-19T12:10:25;2.53;;;0.70;;
69358;SDS011;56520;49.066;8.660;2023-11-19T12:12:57;1.25;;;0.50;;
69358;SDS011;56520;49.066;8.660;2023-11-19T12:15:23;1.02;;;0.50;;
69358;SDS011;56520;49.066;8.660;2023-11-19T12:17:51;2.33;;;0.77;;
69358;SDS011;56520;49.066;8.660;2023-11-19T12:20:18;3.50;;;1.00;;
69358;SDS011;56520;49.066;8.660;2023-11-19T12:22:46;1.42;;;0.52;;
69358;SDS011;56520;49.066;8.660;2023-11-19T12:25:14;1.88;;;0.50;;
69358;SDS011;56520;49.066;8.660;2023-11-19T12:27:51;1.48;;;0.63;;
69358;SDS011;56520;49.066;8.660;2023-11-19T12:30:18;2.65;;;0.85;;
69358;SDS011;56520;49.066;8.660;2023-11-19T12:32:50;1.85;;;0.65;;
69358;SDS011;56520;49.066;8.660;2023-11-19T12:35:18;1.67;;;0.60;;
69358;SDS011;56520;49.066;8.660;2023-11-19T12:37:44;2.63;;;0.65;;
69358;SDS011;56520;49.066;8.660;2023-11-19T12:40:11;4.60;;;0.63;;
69358;SDS011;56520;49.066;8.660;2023-11-19T12:42:50;0.80;;;0.57;;
69358;SDS011;56520;49.066;8.660;2023-11-19T12:45:18;2.17;;;0.70;;
69358;SDS011;56520;49.066;8.660;2023-11-19T12:47:45;0.90;;;0.40;;
69358;SDS011;56520;49.066;8.660;2023-11-19T12:50:12;1.50;;;0.50;;
69358;SDS011;56520;49.066;8.660;2023-11-19T12:52:38;1.27;;;0.60;;
69358;SDS011;56520;49.066;8.660;2023-11-19T12:55:05;1.95;;;0.60;;
69358;SDS011;56520;49.066;8.660;2023-11-19T12:57:48;1.83;;;0.80;;
69358;SDS011;56520;49.066;8.660;2023-11-19T13:00:18;2.00;;;0.80;;
69358;SDS011;56520;49.066;8.660;2023-11-19T13:05:24;5.25;;;1.05;;
69358;SDS011;56520;49.066;8.660;2023-11-19T13:10:31;3.75;;;1.10;;
69358;SDS011;56520;49.066;8.660;2023-11-19T13:13:01;3.13;;;0.80;;
69358;SDS011;56520;49.066;8.660;2023-11-19T13:15:32;4.63;;;0.88;;
69358;SDS011;56520;49.066;8.660;2023-11-19T13:17:58;1.25;;;0.60;;
69358;SDS011;56520;49.066;8.660;2023-11-19T13:20:24;3.20;;;0.88;;
69358;SDS011;56520;49.066;8.660;2023-11-19T13:25:28;2.70;;;0.80;;
69358;SDS011;56520;49.066;8.660;2023-11-19T13:27:55;3.22;;;0.95;;
69358;SDS011;56520;49.066;8.660;2023-11-19T13:30:21;2.97;;;1.00;;
69358;SDS011;56520;49.066;8.660;2023-11-19T13:32:47;2.10;;;0.75;;
69358;SDS011;56520;49.066;8.660;2023-11-19T13:35:13;1.48;;;0.52;;
69358;SDS011;56520;49.066;8.660;2023-11-19T13:37:39;1.95;;;0.70;;
69358;SDS011;56520;49.066;8.660;2023-11-19T13:40:08;0.90;;;0.43;;
69358;SDS011;56520;49.066;8.660;2023-11-19T13:42:39;3.67;;;0.75;;
69358;SDS011;56520;49.066;8.660;2023-11-19T13:45:14;3.50;;;0.82;;
69358;SDS011;56520;49.066;8.660;2023-11-19T13:47:43;2.47;;;0.80;;
69358;SDS011;56520;49.066;8.660;2023-11-19T13:50:11;1.95;;;0.57;;
69358;SDS011;56520;49.066;8.660;2023-11-19T13:52:38;1.92;;;0.60;;
69358;SDS011;56520;49.066;8.660;2023-11-19T13:55:05;2.58;;;0.55;;
69358;SDS011;56520;49.066;8.660;2023-11-19T13:57:32;1.08;;;0.55;;
69358;SDS011;56520;49.066;8.660;2023-11-19T13:59:59;1.45;;;0.60;;
69358;SDS011;56520;49.066;8.660;2023-11-19T14:02:25;2.30;;;0.50;;
69358;SDS011;56520;49.066;8.660;2023-11-19T14:04:50;2.35;;;0.50;;
69358;SDS011;56520;49.066;8.660;2023-11-19T14:07:16;1.35;;;0.50;;
69358;SDS011;56520;49.066;8.660;2023-11-19T14:09:41;1.35;;;0.50;;
69358;SDS011;56520;49.066;8.660;2023-11-19T14:12:07;1.52;;;0.45;;
69358;SDS011;56520;49.066;8.660;2023-11-19T14:14:34;1.52;;;0.57;;
69358;SDS011;56520;49.066;8.660;2023-11-19T14:17:01;2.70;;;0.70;;
69358;SDS011;56520;49.066;8.660;2023-11-19T14:19:28;1.77;;;0.60;;
69358;SDS011;56520;49.066;8.660;2023-11-19T14:21:53;2.17;;;0.70;;
69358;SDS011;56520;49.066;8.660;2023-11-19T14:24:19;3.28;;;0.70;;
69358;SDS011;56520;49.066;8.660;2023-11-19T14:26:45;2.08;;;0.77;;
69358;SDS011;56520;49.066;8.660;2023-11-19T14:29:12;2.83;;;0.60;;
69358;SDS011;56520;49.066;8.660;2023-11-19T14:31:37;1.90;;;0.47;;
69358;SDS011;56520;49.066;8.660;2023-11-19T14:34:04;0.98;;;0.47;;
69358;SDS011;56520;49.066;8.660;2023-11-19T14:36:30;2.72;;;0.80;;
69358;SDS011;56520;49.066;8.660;2023-11-19T14:38:55;0.95;;;0.40;;
69358;SDS011;56520;49.066;8.660;2023-11-19T14:41:22;1.60;;;0.55;;
69358;SDS011;56520;49.066;8.660;2023-11-19T14:43:48;1.13;;;0.60;;
69358;SDS011;56520;49.066;8.660;2023-11-19T14:46:13;1.08;;;0.43;;
69358;SDS011;56520;49.066;8.660;2023-11-19T14:48:39;0.77;;;0.45;;
69358;SDS011;56520;49.066;8.660;2023-11-19T14:51:04;2.75;;;0.85;;
69358;SDS011;56520;49.066;8.660;2023-11-19T14:53:30;1.00;;;0.43;;
69358;SDS011;56520;49.066;8.660;2023-11-19T14:55:55;2.75;;;1.10;;
69358;SDS011;56520;49.066;8.660;2023-11-19T14:58:21;2.28;;;0.75;;
69358;SDS011;56520;49.066;8.660;2023-11-19T15:00:47;4.38;;;1.02;;
69358;SDS011;56520;49.066;8.660;2023-11-19T15:03:13;3.13;;;0.90;;
69358;SDS011;56520;49.066;8.660;2023-11-19T15:05:38;1.33;;;0.55;;
69358;SDS011;56520;49.066;8.660;2023-11-19T15:08:04;3.97;;;1.10;;
69358;SDS011;56520;49.066;8.660;2023-11-19T15:10:29;1.73;;;0.65;;
69358;SDS011;56520;49.066;8.660;2023-11-19T15:12:55;2.70;;;0.80;;
69358;SDS011;56520;49.066;8.660;2023-11-19T15:15:20;2.15;;;0.80;;
69358;SDS011;56520;49.066;8.660;2023-11-19T15:17:47;1.75;;;0.70;;
69358;SDS011;56520;49.066;8.660;2023-11-19T15:20:12;2.05;;;0.70;;